Time;durP1;ratioP1;P1;durP2;ratioP2;P2;SDS_P1;SDS_P2;PMS_P1;PMS_P2;Temp;Humidity;BMP_temperature;BMP_pressure;BME280_temperature;BME280_humidity;BME280_pressure;Samples;Min_cycle;Max_cycle;Signal;HPM_P1;HPM_P2
2021/06/12 00:00:22;;;;;;;46.55;37.15;;;17.90;99.90;;;;;;5017435;28;20474;-52
2021/06/12 00:03:11;;;;;;;43.78;38.22;;;18.00;99.90;;;;;;5014214;28;20065;-52
2021/06/12 00:05:57;;;;;;;46.60;37.38;;;17.90;99.90;;;;;;5016130;28;20191;-46
2021/06/12 00:08:43;;;;;;;49.85;39.22;;;17.90;99.90;;;;;;5021853;28;20696;-50
2021/06/12 00:11:18;;;;;;;45.28;38.30;;;17.90;99.90;;;;;;5020212;28;20042;-50
2021/06/12 00:14:07;;;;;;;41.13;36.60;;;17.90;99.90;;;;;;5020092;28;20052;-50
2021/06/12 00:16:55;;;;;;;47.55;39.40;;;17.90;99.90;;;;;;5019990;28;20092;-57
2021/06/12 00:19:42;;;;;;;48.35;39.83;;;17.90;99.90;;;;;;5026884;28;20037;-51
2021/06/12 00:22:13;;;;;;;49.15;40.05;;;17.90;99.90;;;;;;5028520;28;20056;-55
2021/06/12 00:24:41;;;;;;;54.30;43.17;;;17.90;99.90;;;;;;5022995;28;20045;-48
2021/06/12 00:27:20;;;;;;;56.55;43.40;;;17.90;99.90;;;;;;5020836;28;20045;-47
2021/06/12 00:29:48;;;;;;;56.65;45.65;;;18.00;99.90;;;;;;5024972;28;20041;-48
2021/06/12 00:32:15;;;;;;;55.30;44.83;;;18.00;99.90;;;;;;5021603;28;20125;-49
2021/06/12 00:34:41;;;;;;;53.28;44.63;;;18.00;99.90;;;;;;5015155;28;20041;-46
2021/06/12 00:37:08;;;;;;;56.60;46.63;;;18.00;99.90;;;;;;5025438;28;20076;-49
2021/06/12 00:39:43;;;;;;;52.53;44.63;;;18.00;99.90;;;;;;5025027;28;20498;-50
2021/06/12 00:42:09;;;;;;;58.92;47.80;;;18.00;99.90;;;;;;5029940;28;20378;-52
2021/06/12 00:44:56;;;;;;;56.10;45.92;;;18.00;99.90;;;;;;5022816;28;20049;-51
2021/06/12 00:47:22;;;;;;;58.08;47.95;;;18.00;99.90;;;;;;5019977;28;20474;-53
2021/06/12 00:49:57;;;;;;;54.97;44.42;;;18.10;99.90;;;;;;5011655;28;20057;-48
2021/06/12 00:52:23;;;;;;;48.30;41.28;;;18.10;99.90;;;;;;5014828;28;20082;-49
2021/06/12 00:54:50;;;;;;;50.78;41.42;;;18.10;99.90;;;;;;5015435;28;20132;-54
2021/06/12 00:57:16;;;;;;;51.72;41.65;;;18.00;99.90;;;;;;5017409;28;20068;-55
2021/06/12 00:59:43;;;;;;;50.10;41.47;;;18.10;99.90;;;;;;5021461;28;20053;-52
2021/06/12 01:02:14;;;;;;;51.17;41.67;;;18.10;99.90;;;;;;5024779;28;20049;-50
2021/06/12 01:04:44;;;;;;;48.28;39.72;;;18.00;99.90;;;;;;5025265;28;20050;-54
2021/06/12 01:07:14;;;;;;;46.53;38.70;;;18.10;99.90;;;;;;5027681;28;20575;-50
2021/06/12 01:10:01;;;;;;;48.42;40.03;;;18.10;99.90;;;;;;5020577;28;20375;-51
2021/06/12 01:13:06;;;;;;;41.33;35.53;;;18.00;99.90;;;;;;5021287;28;20049;-51
2021/06/12 01:16:08;;;;;;;43.72;37.47;;;18.10;99.90;;;;;;5015120;28;20044;-50
2021/06/12 01:18:59;;;;;;;43.70;37.40;;;18.00;99.90;;;;;;5025043;28;20414;-48
2021/06/12 01:21:51;;;;;;;41.83;35.20;;;18.00;99.90;;;;;;5025819;28;20045;-48
2021/06/12 01:25:08;;;;;;;44.53;37.17;;;18.00;99.90;;;;;;5026537;28;20045;-51
2021/06/12 01:28:03;;;;;;;42.65;35.78;;;18.00;99.90;;;;;;5020383;28;20042;-51
2021/06/12 01:30:52;;;;;;;41.45;35.20;;;18.00;99.90;;;;;;5010970;28;20091;-51
2021/06/12 01:33:43;;;;;;;44.10;35.78;;;18.00;99.90;;;;;;5024189;28;20053;-51
2021/06/12 01:36:33;;;;;;;46.88;36.08;;;18.00;99.90;;;;;;5020272;28;20077;-50
2021/06/12 01:39:23;;;;;;;46.92;36.45;;;18.00;99.90;;;;;;5009178;28;20054;-48
2021/06/12 01:42:11;;;;;;;47.42;35.45;;;18.10;99.90;;;;;;5025791;28;20049;-50
2021/06/12 01:44:58;;;;;;;44.65;36.30;;;18.00;99.90;;;;;;5024788;28;20045;-51
2021/06/12 01:47:48;;;;;;;42.55;34.97;;;18.00;99.90;;;;;;5023591;28;20045;-47
2021/06/12 01:50:36;;;;;;;44.97;36.63;;;18.00;99.90;;;;;;5015048;28;20046;-50
2021/06/12 01:53:05;;;;;;;45.20;35.55;;;18.00;99.90;;;;;;5022574;28;20045;-47
2021/06/12 01:55:51;;;;;;;52.50;36.03;;;18.00;99.90;;;;;;5025206;28;20049;-50
2021/06/12 01:58:41;;;;;;;44.40;36.53;;;18.00;99.90;;;;;;5014647;28;20065;-53
2021/06/12 02:01:33;;;;;;;46.25;36.65;;;17.90;99.90;;;;;;5024691;28;20052;-52
2021/06/12 02:04:20;;;;;;;49.65;37.92;;;17.90;99.90;;;;;;5022841;28;20050;-52
2021/06/12 02:07:10;;;;;;;45.17;37.75;;;17.90;99.90;;;;;;5021786;28;20083;-48
2021/06/12 02:09:57;;;;;;;50.17;38.50;;;17.90;99.90;;;;;;5005883;28;20172;-50
2021/06/12 02:12:43;;;;;;;49.88;38.30;;;17.80;99.90;;;;;;5020048;28;20215;-54
2021/06/12 02:15:31;;;;;;;49.10;39.17;;;17.80;99.90;;;;;;5025042;28;20103;-47
2021/06/12 02:18:26;;;;;;;49.65;39.75;;;17.80;99.90;;;;;;5023605;28;20050;-52
2021/06/12 02:21:14;;;;;;;;;;;17.80;99.90;;;;;;5024176;28;20115;-50
2021/06/12 02:24:00;;;;;;;54.15;41.03;;;17.80;99.90;;;;;;5023776;28;19921;-49
2021/06/12 02:26:51;;;;;;;56.10;41.80;;;17.70;99.90;;;;;;5024684;28;20045;-49
2021/06/12 02:29:39;;;;;;;61.88;44.20;;;17.70;99.90;;;;;;5019865;28;20041;-49
2021/06/12 02:32:26;;;;;;;55.55;43.05;;;17.70;99.90;;;;;;5015291;28;20057;-48
2021/06/12 02:35:16;;;;;;;55.97;40.85;;;17.60;99.90;;;;;;5019447;28;20052;-52
2021/06/12 02:38:02;;;;;;;54.92;42.63;;;17.60;99.90;;;;;;5025599;28;20153;-53
2021/06/12 02:40:50;;;;;;;51.83;41.60;;;17.60;99.90;;;;;;5024863;28;20495;-48
2021/06/12 02:43:36;;;;;;;57.63;44.05;;;17.60;99.90;;;;;;5025643;28;20535;-53
2021/06/12 02:46:27;;;;;;;61.38;45.08;;;17.50;99.90;;;;;;5024566;28;20145;-54
2021/06/12 02:49:17;;;;;;;64.80;47.55;;;17.50;99.90;;;;;;5016717;28;20278;-49
2021/06/12 02:52:16;;;;;;;62.28;46.75;;;17.50;99.90;;;;;;5011462;28;20430;-51
2021/06/12 02:55:10;;;;;;;61.60;44.63;;;17.50;99.90;;;;;;5022076;28;20045;-51
2021/06/12 02:57:59;;;;;;;67.93;48.53;;;17.50;99.90;;;;;;5023040;28;20076;-51
2021/06/12 03:00:48;;;;;;;62.95;46.05;;;17.50;99.90;;;;;;5023041;28;20152;-50
2021/06/12 03:03:35;;;;;;;59.55;47.15;;;17.50;99.90;;;;;;5007662;28;20056;-47
2021/06/12 03:06:23;;;;;;;67.63;48.50;;;17.50;99.90;;;;;;5018183;28;20467;-46
2021/06/12 03:09:06;;;;;;;63.60;47.55;;;17.50;99.90;;;;;;5024752;28;20049;-53
2021/06/12 03:11:56;;;;;;;63.03;48.70;;;17.50;99.90;;;;;;5015277;28;20127;-50
2021/06/12 03:14:25;;;;;;;66.57;49.25;;;17.50;99.90;;;;;;5023377;28;20045;-47
2021/06/12 03:16:52;;;;;;;67.88;49.40;;;17.50;99.90;;;;;;5024159;28;20041;-47
2021/06/12 03:19:41;;;;;;;65.28;48.25;;;17.50;99.90;;;;;;5014625;28;20461;-51
2021/06/12 03:22:34;;;;;;;67.80;48.60;;;17.40;99.90;;;;;;5023304;28;20684;-50
2021/06/12 03:25:22;;;;;;;60.17;46.50;;;17.40;99.90;;;;;;5018983;28;20871;-53
2021/06/12 03:28:08;;;;;;;61.58;47.20;;;17.50;99.90;;;;;;5018726;28;20087;-53
2021/06/12 03:30:34;;;;;;;68.20;47.03;;;17.40;99.90;;;;;;5024175;28;20041;-46
2021/06/12 03:33:04;;;;;;;69.07;50.38;;;17.40;99.90;;;;;;5023210;28;20084;-54
2021/06/12 03:35:31;;;;;;;65.47;48.22;;;17.40;99.90;;;;;;5025404;28;20052;-49
2021/06/12 03:37:58;;;;;;;64.53;47.97;;;17.40;99.90;;;;;;5017786;28;20662;-49
2021/06/12 03:40:25;;;;;;;60.40;47.65;;;17.40;99.90;;;;;;5018349;28;20128;-49
2021/06/12 03:43:11;;;;;;;67.10;48.58;;;17.40;99.90;;;;;;5021450;28;20053;-48
2021/06/12 03:45:43;;;;;;;63.65;47.83;;;17.50;99.90;;;;;;5024716;28;20879;-51
2021/06/12 03:48:12;;;;;;;63.60;46.97;;;17.50;99.90;;;;;;5024758;28;20053;-53
2021/06/12 03:50:59;;;;;;;63.33;46.53;;;17.50;99.90;;;;;;5024453;28;20053;-51
2021/06/12 03:53:47;;;;;;;65.10;46.50;;;17.60;99.90;;;;;;5028371;28;20080;-48
2021/06/12 03:56:38;;;;;;;57.75;45.17;;;17.60;99.90;;;;;;5028236;28;20595;-49
2021/06/12 03:59:24;;;;;;;60.83;45.60;;;17.60;99.90;;;;;;5028193;28;20064;-48
2021/06/12 04:02:20;;;;;;;58.50;45.78;;;17.60;99.90;;;;;;5026389;28;20077;-57
2021/06/12 04:05:07;;;;;;;60.22;47.60;;;17.70;99.90;;;;;;5027488;28;20045;-48
2021/06/12 04:07:58;;;;;;;57.53;45.75;;;17.60;99.90;;;;;;5027831;28;20063;-52
2021/06/12 04:10:45;;;;;;;58.45;46.08;;;17.70;99.90;;;;;;5027953;28;20057;-50
2021/06/12 04:13:11;;;;;;;54.20;44.70;;;17.70;99.90;;;;;;5026811;28;20053;-50
2021/06/12 04:15:39;;;;;;;57.33;44.78;;;17.70;99.90;;;;;;5025279;28;20057;-52
2021/06/12 04:18:26;;;;;;;55.60;43.97;;;17.70;99.90;;;;;;5026115;28;20045;-56
2021/06/12 04:21:16;;;;;;;55.08;42.90;;;17.80;99.90;;;;;;5026862;28;20470;-46
2021/06/12 04:24:03;;;;;;;50.17;41.33;;;17.80;99.90;;;;;;5026107;28;20145;-47
2021/06/12 04:26:49;;;;;;;56.58;46.25;;;17.80;99.90;;;;;;5023176;28;20458;-52
2021/06/12 04:29:35;;;;;;;48.72;42.17;;;17.80;99.90;;;;;;5026694;28;20127;-46
2021/06/12 04:32:21;;;;;;;52.92;42.15;;;17.80;99.90;;;;;;5016470;28;20056;-46
2021/06/12 04:35:08;;;;;;;53.13;41.53;;;17.80;99.90;;;;;;5026864;28;20050;-47
2021/06/12 04:37:55;;;;;;;47.28;40.05;;;17.80;99.90;;;;;;5026193;28;20076;-53
2021/06/12 04:40:42;;;;;;;44.25;38.15;;;17.80;99.90;;;;;;5011900;28;20051;-50
2021/06/12 04:43:28;;;;;;;41.40;36.47;;;17.90;99.90;;;;;;5025906;28;20045;-46
2021/06/12 04:46:14;;;;;;;40.97;36.08;;;17.90;99.90;;;;;;5026651;28;20061;-48
2021/06/12 04:48:41;;;;;;;41.08;36.33;;;18.00;99.90;;;;;;5024648;28;20050;-52
2021/06/12 04:51:10;;;;;;;40.28;35.20;;;18.00;99.90;;;;;;5021918;28;20037;-48
2021/06/12 04:53:40;;;;;;;42.35;36.45;;;18.00;99.90;;;;;;5026273;28;20077;-49
2021/06/12 04:56:26;;;;;;;39.17;33.00;;;18.00;99.90;;;;;;5022654;28;20060;-54
2021/06/12 04:58:55;;;;;;;38.75;33.22;;;18.00;99.90;;;;;;5026828;28;20087;-50
2021/06/12 05:01:21;;;;;;;37.28;31.92;;;18.10;99.90;;;;;;5027311;28;20085;-49
2021/06/12 05:03:48;;;;;;;36.10;32.15;;;18.20;99.90;;;;;;5025182;28;20064;-50
2021/06/12 05:06:14;;;;;;;34.75;30.35;;;18.10;99.90;;;;;;5027189;28;20132;-47
2021/06/12 05:08:53;;;;;;;31.77;28.13;;;18.20;99.90;;;;;;5021063;28;20513;-50
2021/06/12 05:11:21;;;;;;;32.05;26.42;;;18.10;99.90;;;;;;5027040;28;20056;-47
2021/06/12 05:13:47;;;;;;;33.88;27.02;;;18.20;99.90;;;;;;5024664;28;20077;-50
2021/06/12 05:16:18;;;;;;;33.42;26.35;;;18.10;99.90;;;;;;5026320;28;20551;-56
2021/06/12 05:18:54;;;;;;;29.70;24.90;;;18.10;99.90;;;;;;5026272;28;20128;-52
2021/06/12 05:21:20;;;;;;;27.13;24.23;;;18.20;99.90;;;;;;5020438;28;20050;-55
2021/06/12 05:23:50;;;;;;;26.77;23.63;;;18.20;99.90;;;;;;5023016;28;20080;-51
2021/06/12 05:26:25;;;;;;;30.55;24.58;;;18.30;99.90;;;;;;5025502;28;20111;-51
2021/06/12 05:28:53;;;;;;;26.73;23.33;;;18.40;99.90;;;;;;5007760;28;20592;-56
2021/06/12 05:31:22;;;;;;;27.77;21.50;;;18.50;99.90;;;;;;5008857;28;20706;-52
2021/06/12 05:33:48;;;;;;;29.17;21.50;;;18.60;99.90;;;;;;5005448;28;20045;-54
2021/06/12 05:36:17;;;;;;;25.60;21.70;;;18.70;99.90;;;;;;5006338;28;20145;-49
2021/06/12 05:38:43;;;;;;;27.23;20.95;;;18.70;99.90;;;;;;5011891;28;20509;-55
2021/06/12 05:41:09;;;;;;;22.88;19.42;;;18.70;99.90;;;;;;5017931;28;20929;-53
2021/06/12 05:43:41;;;;;;;21.75;18.70;;;18.80;99.90;;;;;;5007003;28;20069;-56
2021/06/12 05:46:08;;;;;;;22.92;18.27;;;19.10;99.90;;;;;;5007653;28;20568;-54
2021/06/12 05:48:34;;;;;;;22.90;17.60;;;19.10;99.90;;;;;;5009485;28;20145;-57
2021/06/12 05:51:01;;;;;;;19.92;17.50;;;19.10;99.90;;;;;;5027151;28;20038;-57
2021/06/12 05:53:27;;;;;;;18.67;16.52;;;19.00;99.90;;;;;;5024514;28;21762;-56
2021/06/12 05:55:58;;;;;;;23.05;17.00;;;19.00;99.90;;;;;;5024826;28;20049;-58
2021/06/12 05:58:27;;;;;;;18.90;16.00;;;19.10;99.90;;;;;;5027060;28;20068;-55
2021/06/12 06:00:55;;;;;;;18.65;14.55;;;19.00;99.90;;;;;;5024009;28;20057;-52
2021/06/12 06:03:26;;;;;;;21.05;15.00;;;18.90;99.90;;;;;;5014814;28;20136;-55
2021/06/12 06:05:52;;;;;;;19.83;14.98;;;18.90;99.90;;;;;;5022657;28;20060;-51
2021/06/12 06:08:19;;;;;;;19.70;16.10;;;18.80;99.90;;;;;;5017059;28;20049;-53
2021/06/12 06:10:46;;;;;;;19.45;15.85;;;18.80;99.90;;;;;;5016900;28;20132;-52
2021/06/12 06:13:17;;;;;;;17.63;14.37;;;18.80;99.90;;;;;;5022258;28;20043;-52
2021/06/12 06:15:55;;;;;;;17.35;15.40;;;19.00;99.90;;;;;;5019981;28;20081;-52
2021/06/12 06:18:42;;;;;;;17.42;14.20;;;18.90;99.90;;;;;;5018386;28;20053;-52
2021/06/12 06:21:23;;;;;;;16.67;11.98;;;18.80;99.90;;;;;;5028112;28;20060;-55
2021/06/12 06:23:51;;;;;;;16.95;13.40;;;18.90;99.90;;;;;;5027102;28;20045;-50
2021/06/12 06:26:19;;;;;;;14.93;10.93;;;19.00;99.90;;;;;;5026800;28;20080;-55
2021/06/12 06:28:47;;;;;;;14.65;11.52;;;19.00;99.90;;;;;;5027303;28;20061;-52
2021/06/12 06:31:15;;;;;;;15.05;10.52;;;19.10;99.90;;;;;;5012815;28;20057;-53
2021/06/12 06:33:42;;;;;;;15.00;10.70;;;19.10;99.90;;;;;;5010607;28;20481;-54
2021/06/12 06:36:21;;;;;;;16.65;11.65;;;19.20;99.90;;;;;;5017221;28;20042;-54
2021/06/12 06:38:47;;;;;;;15.80;10.77;;;19.10;99.90;;;;;;5018060;28;20072;-53
2021/06/12 06:41:16;;;;;;;19.58;11.57;;;19.20;99.90;;;;;;5014785;28;20474;-50
2021/06/12 06:43:44;;;;;;;16.92;9.63;;;19.30;99.90;;;;;;5005381;28;20057;-48
2021/06/12 06:46:15;;;;;;;14.48;11.18;;;19.30;99.90;;;;;;5023897;28;20319;-50
2021/06/12 06:48:46;;;;;;;12.53;9.40;;;19.50;99.90;;;;;;5023133;28;20541;-51
2021/06/12 06:51:13;;;;;;;12.32;8.90;;;19.50;99.90;;;;;;5024880;28;20787;-52
2021/06/12 06:53:42;;;;;;;14.10;9.88;;;19.80;99.90;;;;;;5009819;28;20906;-49
2021/06/12 06:56:09;;;;;;;12.40;7.40;;;19.80;99.70;;;;;;5014922;28;20046;-51
2021/06/12 06:58:44;;;;;;;14.15;7.78;;;19.70;98.70;;;;;;5026670;28;20140;-49
2021/06/12 07:01:10;;;;;;;11.05;7.20;;;19.90;97.80;;;;;;5025073;28;20068;-52
2021/06/12 07:03:42;;;;;;;11.18;8.52;;;20.00;96.50;;;;;;5026117;28;20038;-52
2021/06/12 07:06:08;;;;;;;8.65;6.95;;;20.00;98.10;;;;;;5024338;28;20119;-48
2021/06/12 07:08:35;;;;;;;9.40;6.95;;;19.90;96.30;;;;;;5024686;28;20367;-50
2021/06/12 07:11:02;;;;;;;13.23;7.85;;;19.90;97.00;;;;;;5024979;28;20502;-47
2021/06/12 07:13:39;;;;;;;8.38;5.63;;;19.80;97.20;;;;;;5014661;28;20532;-52
2021/06/12 07:16:07;;;;;;;9.48;5.25;;;19.60;95.10;;;;;;5026512;28;20525;-52
2021/06/12 07:18:54;;;;;;;9.85;5.63;;;19.70;95.60;;;;;;5024993;28;20204;-51
2021/06/12 07:21:21;;;;;;;9.05;4.80;;;19.70;94.20;;;;;;5024896;28;20056;-50
2021/06/12 07:24:01;;;;;;;7.10;4.03;;;19.90;95.30;;;;;;5017578;28;20080;-50
2021/06/12 07:26:42;;;;;;;8.27;4.47;;;19.80;93.70;;;;;;5023653;28;20128;-49
2021/06/12 07:29:11;;;;;;;8.10;4.40;;;20.00;93.60;;;;;;4979685;28;20136;-52
2021/06/12 07:31:51;;;;;;;8.40;4.80;;;20.00;92.40;;;;;;5024477;28;20052;-53
2021/06/12 07:34:18;;;;;;;12.68;8.27;;;20.10;93.30;;;;;;5027615;28;20128;-49
2021/06/12 07:36:44;;;;;;;7.78;5.68;;;20.70;91.50;;;;;;5025423;28;20816;-54
2021/06/12 07:39:11;;;;;;;6.57;4.13;;;20.70;88.80;;;;;;5025819;28;20079;-52
2021/06/12 07:41:38;;;;;;;6.93;3.95;;;20.90;90.50;;;;;;5025420;28;20051;-49
2021/06/12 07:44:06;;;;;;;8.43;3.97;;;21.00;90.70;;;;;;5032409;28;20137;-52
2021/06/12 07:46:33;;;;;;;6.47;3.65;;;21.30;89.30;;;;;;5024046;28;20037;-54
2021/06/12 07:48:59;;;;;;;7.13;4.22;;;21.20;87.80;;;;;;5019073;28;20096;-51
2021/06/12 07:51:31;;;;;;;7.50;3.80;;;21.20;88.00;;;;;;5023611;28;20079;-51
2021/06/12 07:53:58;;;;;;;6.82;2.92;;;20.70;84.30;;;;;;5022993;28;20073;-53
2021/06/12 07:56:25;;;;;;;7.45;4.00;;;20.90;88.40;;;;;;5024749;28;20041;-50
2021/06/12 07:58:51;;;;;;;10.68;4.10;;;20.90;83.70;;;;;;5013826;28;20140;-52
2021/06/12 08:01:17;;;;;;;9.77;3.20;;;20.90;84.80;;;;;;5014465;28;20053;-50
2021/06/12 08:03:43;;;;;;;10.27;3.17;;;20.80;80.20;;;;;;5017296;28;20050;-54
2021/06/12 08:06:12;;;;;;;6.43;3.65;;;20.70;79.70;;;;;;5024260;28;20402;-51
2021/06/12 08:08:38;;;;;;;6.78;3.28;;;20.90;80.30;;;;;;5006734;28;20061;-59
2021/06/12 08:11:05;;;;;;;9.73;3.42;;;21.20;79.70;;;;;;5005925;28;20061;-55
2021/06/12 08:13:31;;;;;;;6.60;3.38;;;21.30;80.70;;;;;;5007840;28;20133;-57
2021/06/12 08:15:58;;;;;;;7.18;3.38;;;21.70;78.30;;;;;;5022096;28;20046;-50
2021/06/12 08:18:24;;;;;;;6.90;2.78;;;21.60;76.10;;;;;;5026634;28;20068;-48
2021/06/12 08:20:50;;;;;;;7.45;3.55;;;21.80;77.80;;;;;;5031845;28;20057;-48
2021/06/12 08:23:16;;;;;;;6.45;3.50;;;22.20;75.30;;;;;;5023498;28;20053;-53
2021/06/12 08:25:43;;;;;;;7.30;3.78;;;22.00;74.90;;;;;;5019900;28;21072;-49
2021/06/12 08:28:09;;;;;;;7.63;3.63;;;22.20;75.00;;;;;;5028437;28;20069;-55
2021/06/12 08:30:36;;;;;;;7.10;3.10;;;21.50;75.80;;;;;;5024852;28;20053;-52
2021/06/12 08:33:11;;;;;;;8.30;3.72;;;21.30;76.10;;;;;;5024858;28;20151;-59
2021/06/12 08:35:39;;;;;;;6.30;2.72;;;21.00;78.10;;;;;;5024415;28;20042;-54
2021/06/12 08:38:06;;;;;;;8.43;3.38;;;20.90;80.20;;;;;;5027060;28;20049;-51
2021/06/12 08:40:36;;;;;;;8.13;3.60;;;20.80;80.60;;;;;;5028650;28;20076;-54
2021/06/12 08:43:05;;;;;;;6.78;3.30;;;21.10;81.60;;;;;;5032435;28;20103;-54
2021/06/12 08:45:32;;;;;;;6.75;3.03;;;20.90;80.90;;;;;;5027715;28;20045;-48
2021/06/12 08:48:00;;;;;;;8.52;3.60;;;20.60;81.40;;;;;;5035309;28;20611;-50
2021/06/12 08:50:27;;;;;;;9.75;4.57;;;20.50;82.40;;;;;;5027379;28;20049;-48
2021/06/12 08:52:56;;;;;;;7.95;3.70;;;20.50;82.70;;;;;;5028151;28;20105;-50
2021/06/12 08:55:23;;;;;;;8.95;3.42;;;20.70;82.40;;;;;;5027914;28;20123;-51
2021/06/12 08:57:49;;;;;;;10.27;3.22;;;20.90;80.70;;;;;;5027763;28;20136;-53
2021/06/12 09:00:17;;;;;;;11.35;3.63;;;21.70;80.90;;;;;;5010325;28;20053;-51
2021/06/12 09:03:09;;;;;;;8.35;3.42;;;21.70;76.90;;;;;;5028131;28;20053;-51
2021/06/12 09:05:48;;;;;;;9.27;3.30;;;21.40;72.20;;;;;;5026793;28;20083;-56
2021/06/12 09:08:22;;;;;;;9.05;3.22;;;21.60;75.90;;;;;;5008489;28;20720;-51
2021/06/12 09:11:12;;;;;;;11.15;3.40;;;21.80;75.10;;;;;;5008526;28;20064;-56
2021/06/12 09:13:48;;;;;;;8.50;3.17;;;21.70;73.40;;;;;;5008104;28;20108;-50
2021/06/12 09:16:34;;;;;;;8.13;2.92;;;22.00;74.90;;;;;;5023830;28;20064;-49
2021/06/12 09:19:06;;;;;;;7.30;3.20;;;21.80;73.40;;;;;;5028616;28;20536;-46
2021/06/12 09:21:44;;;;;;;7.88;2.92;;;22.60;74.60;;;;;;5026528;28;20041;-49
2021/06/12 09:24:42;;;;;;;7.18;2.60;;;22.90;70.80;;;;;;5027468;28;20413;-45
2021/06/12 09:27:16;;;;;;;7.95;2.95;;;23.00;63.50;;;;;;5025958;28;20077;-60
2021/06/12 09:29:47;;;;;;;8.57;3.03;;;22.40;65.40;;;;;;5027903;28;20244;-47
2021/06/12 09:32:18;;;;;;;6.10;2.58;;;22.00;68.10;;;;;;5027269;28;20485;-59
2021/06/12 09:34:47;;;;;;;8.27;2.95;;;21.50;66.20;;;;;;5027892;28;20107;-62
2021/06/12 09:37:17;;;;;;;7.05;2.28;;;21.80;68.80;;;;;;5026231;28;20136;-58
2021/06/12 09:40:11;;;;;;;7.75;2.65;;;22.50;64.00;;;;;;5024461;28;20042;-56
2021/06/12 09:42:54;;;;;;;7.72;2.50;;;22.40;63.10;;;;;;5007890;28;20046;-47
2021/06/12 09:45:30;;;;;;;8.00;3.10;;;23.00;64.20;;;;;;5007754;28;20091;-46
2021/06/12 09:48:13;;;;;;;8.65;2.90;;;23.80;61.50;;;;;;5013694;28;20041;-52
2021/06/12 09:50:40;;;;;;;5.75;2.20;;;24.20;58.10;;;;;;5027051;28;20539;-52
2021/06/12 09:53:16;;;;;;;5.55;2.28;;;24.40;58.80;;;;;;5027200;28;20095;-49
2021/06/12 09:55:43;;;;;;;8.85;2.83;;;24.50;56.30;;;;;;5034791;28;20115;-51
2021/06/12 09:58:09;;;;;;;6.35;2.60;;;23.90;56.30;;;;;;5026247;28;20156;-56
2021/06/12 10:00:41;;;;;;;8.10;2.50;;;23.40;58.90;;;;;;5026937;28;20089;-50
2021/06/12 10:03:17;;;;;;;9.10;3.13;;;23.30;59.00;;;;;;5026881;28;20052;-53
2021/06/12 10:05:48;;;;;;;6.25;2.45;;;22.70;59.70;;;;;;5027371;28;20053;-50
2021/06/12 10:08:18;;;;;;;6.95;2.60;;;22.80;61.70;;;;;;5028074;28;20052;-72
2021/06/12 10:10:49;;;;;;;10.23;2.97;;;23.10;62.50;;;;;;5026816;28;20057;-62
2021/06/12 10:13:19;;;;;;;9.43;3.08;;;22.60;60.90;;;;;;5026363;28;20049;-48
2021/06/12 10:15:47;;;;;;;7.80;2.65;;;22.60;61.00;;;;;;5020871;28;20049;-59
2021/06/12 10:18:19;;;;;;;7.45;3.00;;;22.30;61.10;;;;;;5024270;28;20152;-51
2021/06/12 10:20:46;;;;;;;7.25;2.97;;;22.60;60.80;;;;;;5020990;28;20049;-51
2021/06/12 10:23:14;;;;;;;5.57;2.25;;;22.80;61.00;;;;;;5018491;28;20496;-47
2021/06/12 10:25:41;;;;;;;7.18;2.40;;;22.40;59.30;;;;;;5008971;28;20122;-53
2021/06/12 10:28:09;;;;;;;6.88;2.60;;;22.30;60.90;;;;;;5025223;28;20052;-49
2021/06/12 10:30:36;;;;;;;7.30;2.47;;;22.60;61.20;;;;;;5010957;28;20742;-49
2021/06/12 10:33:03;;;;;;;10.10;4.13;;;23.30;60.20;;;;;;5007377;28;20078;-52
2021/06/12 10:35:29;;;;;;;5.97;2.13;;;24.00;56.80;;;;;;5019046;28;20052;-53
2021/06/12 10:38:02;;;;;;;5.45;1.85;;;24.70;55.00;;;;;;5015572;28;20046;-50
2021/06/12 10:40:48;;;;;;;6.03;2.20;;;24.50;54.30;;;;;;5021674;28;20050;-53
2021/06/12 10:43:20;;;;;;;7.68;1.73;;;24.90;49.80;;;;;;5025203;28;20053;-52
2021/06/12 10:46:08;;;;;;;4.53;1.83;;;24.10;51.60;;;;;;5021510;28;20033;-49
2021/06/12 10:48:40;;;;;;;4.70;1.60;;;23.40;52.20;;;;;;5024824;28;20049;-52
2021/06/12 10:51:12;;;;;;;5.18;1.48;;;23.40;53.50;;;;;;5012558;28;20054;-49
2021/06/12 10:53:38;;;;;;;7.00;2.00;;;23.10;54.70;;;;;;5018713;28;20080;-48
2021/06/12 10:56:08;;;;;;;7.07;2.08;;;22.70;54.50;;;;;;5024918;28;20052;-53
2021/06/12 10:58:35;;;;;;;5.07;1.83;;;23.40;55.70;;;;;;5012867;28;20065;-52
2021/06/12 11:01:14;;;;;;;4.68;1.80;;;23.20;54.60;;;;;;5024574;28;20068;-54
2021/06/12 11:03:52;;;;;;;10.90;8.02;;;23.30;55.40;;;;;;5017891;28;20080;-48
2021/06/12 11:09:14;;;;;;;8.55;2.38;;;23.50;53.90;;;;;;5027639;28;20122;-51
2021/06/12 11:11:50;;;;;;;4.57;1.80;;;23.10;52.00;;;;;;5025867;28;20045;-52
2021/06/12 11:14:20;;;;;;;7.05;2.47;;;22.50;54.30;;;;;;5017176;28;20041;-47
2021/06/12 11:17:12;;;;;;;4.53;1.98;;;23.20;56.20;;;;;;5018740;28;20152;-53
2021/06/12 11:19:49;;;;;;;6.07;1.65;;;23.70;55.00;;;;;;5020905;28;20041;-52
2021/06/12 11:22:33;;;;;;;4.95;1.83;;;24.40;53.80;;;;;;5018274;28;20049;-48
2021/06/12 11:25:21;;;;;;;7.20;1.70;;;24.10;51.60;;;;;;5025244;28;20053;-52
2021/06/12 11:27:53;;;;;;;7.97;2.10;;;24.30;52.10;;;;;;5019163;28;20203;-57
2021/06/12 11:30:22;;;;;;;;;;;24.40;52.00;;;;;;5012053;28;20520;-51
2021/06/12 11:32:57;;;;;;;7.00;1.85;;;24.60;50.00;;;;;;5014512;28;19922;-52
2021/06/12 11:36:01;;;;;;;6.50;1.73;;;23.90;51.40;;;;;;5006660;28;20485;-49
2021/06/12 11:38:32;;;;;;;5.53;1.58;;;23.80;51.00;;;;;;5005765;28;20052;-52
2021/06/12 11:41:09;;;;;;;6.82;2.20;;;24.10;51.10;;;;;;5025764;28;20052;-48
2021/06/12 11:43:44;;;;;;;4.15;1.77;;;23.70;51.30;;;;;;5026345;28;20440;-48
2021/06/12 11:46:14;;;;;;;5.78;1.30;;;24.30;52.90;;;;;;5026363;28;20501;-48
2021/06/12 11:48:45;;;;;;;4.95;1.50;;;24.90;52.20;;;;;;5024931;28;20053;-51
2021/06/12 11:51:19;;;;;;;;;;;25.00;49.00;;;;;;5025414;28;20045;-51
2021/06/12 11:54:09;;;;;;;5.85;1.80;;;24.40;49.80;;;;;;5026411;28;19920;-50
2021/06/12 11:56:45;;;;;;;5.22;1.80;;;24.90;48.50;;;;;;5024915;28;20055;-51
2021/06/12 11:59:17;;;;;;;5.43;1.50;;;24.90;47.50;;;;;;5018318;28;20044;-50
2021/06/12 12:01:50;;;;;;;5.22;1.60;;;25.00;47.30;;;;;;5025327;28;20045;-49
2021/06/12 12:04:21;;;;;;;5.38;1.63;;;24.60;48.80;;;;;;5024952;28;20060;-54
2021/06/12 12:06:48;;;;;;;;;;;24.50;51.90;;;;;;5024685;28;20037;-53
2021/06/12 12:09:32;;;;;;;4.90;1.30;;;24.00;48.60;;;;;;5023023;28;19931;-51
2021/06/12 12:12:04;;;;;;;4.50;1.35;;;24.10;48.60;;;;;;5020311;28;20056;-54
2021/06/12 12:14:37;;;;;;;4.43;1.23;;;24.50;49.00;;;;;;5026623;28;20045;-52
2021/06/12 12:17:06;;;;;;;6.72;1.83;;;24.00;48.10;;;;;;5028308;28;20140;-51
2021/06/12 12:19:35;;;;;;;4.38;1.30;;;23.70;49.00;;;;;;5022955;28;20037;-57
2021/06/12 12:22:03;;;;;;;4.88;1.30;;;23.30;49.90;;;;;;5018415;28;20501;-53
2021/06/12 12:24:32;;;;;;;5.13;2.13;;;22.70;50.50;;;;;;5024295;28;20140;-55
2021/06/12 12:27:07;;;;;;;4.15;1.63;;;23.20;52.00;;;;;;5026704;28;20557;-57
2021/06/12 12:29:38;;;;;;;7.30;3.33;;;23.30;50.70;;;;;;5026896;28;20110;-51
2021/06/12 12:32:04;;;;;;;6.40;3.25;;;23.70;50.90;;;;;;5027896;28;20817;-52
2021/06/12 12:34:38;;;;;;;3.85;1.40;;;23.80;50.60;;;;;;5027845;28;20077;-53
2021/06/12 12:37:18;;;;;;;3.72;1.48;;;23.00;50.80;;;;;;5027704;28;20084;-48
2021/06/12 12:39:47;;;;;;;4.18;1.15;;;22.50;51.10;;;;;;5025072;28;20394;-53
2021/06/12 12:42:20;;;;;;;4.22;2.00;;;22.80;50.40;;;;;;5021966;28;20137;-56
2021/06/12 12:44:48;;;;;;;3.33;1.38;;;22.80;51.50;;;;;;5027504;28;20053;-52
2021/06/12 12:47:21;;;;;;;5.60;1.88;;;22.60;51.10;;;;;;5017589;28;20046;-51
2021/06/12 12:49:47;;;;;;;4.63;1.67;;;22.40;51.50;;;;;;5019803;28;20052;-49
2021/06/12 12:52:22;;;;;;;7.22;2.08;;;22.60;51.40;;;;;;5019235;28;20042;-53
2021/06/12 12:55:07;;;;;;;8.43;5.82;;;22.30;51.80;;;;;;5020054;28;20045;-50
2021/06/12 12:57:43;;;;;;;14.27;12.00;;;21.80;53.10;;;;;;5024599;28;20053;-50
2021/06/12 13:00:21;;;;;;;5.60;1.88;;;22.20;53.00;;;;;;5030621;28;20041;-55
2021/06/12 13:02:59;;;;;;;9.55;4.57;;;21.80;55.00;;;;;;5028517;28;20057;-55
2021/06/12 13:05:26;;;;;;;6.95;2.30;;;21.80;54.70;;;;;;5029226;28;20064;-47
2021/06/12 13:08:03;;;;;;;5.50;1.67;;;21.30;54.80;;;;;;5019709;28;20485;-53
2021/06/12 13:10:36;;;;;;;7.20;3.40;;;21.70;54.40;;;;;;5025641;28;20140;-57
2021/06/12 13:13:07;;;;;;;7.38;1.60;;;21.80;54.10;;;;;;5018269;28;20482;-45
2021/06/12 13:15:34;;;;;;;;;;;21.30;55.20;;;;;;5027126;28;20052;-49
2021/06/12 13:18:06;;;;;;;4.95;2.42;;;21.00;58.10;;;;;;5024413;28;19927;-52
2021/06/12 13:20:34;;;;;;;7.00;1.88;;;20.80;57.70;;;;;;5008594;28;20115;-50
2021/06/12 13:23:00;;;;;;;6.13;1.70;;;21.30;58.40;;;;;;5023339;28;20741;-46